Terminal Aerodrome Forecast
Issued by NWS

Home | Current Version | Previous Version | Text Only | Print | Product List | Glossary On
Versions: 1 2 3 4 5 6 7 8 9 10 11 12 13 14
063
FTUS43 KMPX 191732
TAFRWF
TAF
KRWF 191732Z 1918/2018 31013G22KT P6SM SCT045
     FM200100 30006KT P6SM SKC
     FM200500 24005KT P6SM SCT100 BKN200
     FM201300 33007KT P6SM SKC=

USA.gov is the U.S. government's official web portal to all federal, state and local government web resources and services.